sensor_id;sensor_type;location;lat;lon;timestamp;P1;durP1;ratioP1;P2;durP2;ratioP2
52590;SDS011;38483;42.620;25.394;2023-07-31T00:00:16;3.47;;;2.60;;
52590;SDS011;38483;42.620;25.394;2023-07-31T00:02:43;5.13;;;2.50;;
52590;SDS011;38483;42.620;25.394;2023-07-31T00:05:10;5.97;;;3.00;;
52590;SDS011;38483;42.620;25.394;2023-07-31T00:07:37;3.63;;;3.33;;
52590;SDS011;38483;42.620;25.394;2023-07-31T00:10:05;3.10;;;2.80;;
52590;SDS011;38483;42.620;25.394;2023-07-31T00:12:32;4.00;;;3.00;;
52590;SDS011;38483;42.620;25.394;2023-07-31T00:15:00;3.73;;;2.87;;
52590;SDS011;38483;42.620;25.394;2023-07-31T00:17:30;3.47;;;2.70;;
52590;SDS011;38483;42.620;25.394;2023-07-31T00:19:57;3.60;;;2.50;;
52590;SDS011;38483;42.620;25.394;2023-07-31T00:22:26;3.20;;;2.73;;
52590;SDS011;38483;42.620;25.394;2023-07-31T00:24:53;6.30;;;2.80;;
52590;SDS011;38483;42.620;25.394;2023-07-31T00:27:20;3.03;;;2.73;;
52590;SDS011;38483;42.620;25.394;2023-07-31T00:29:47;4.37;;;2.40;;
52590;SDS011;38483;42.620;25.394;2023-07-31T00:32:14;3.10;;;2.80;;
52590;SDS011;38483;42.620;25.394;2023-07-31T00:34:41;3.30;;;2.93;;
52590;SDS011;38483;42.620;25.394;2023-07-31T00:37:08;2.47;;;2.03;;
52590;SDS011;38483;42.620;25.394;2023-07-31T00:39:35;5.40;;;2.70;;
52590;SDS011;38483;42.620;25.394;2023-07-31T00:42:02;3.37;;;2.80;;
52590;SDS011;38483;42.620;25.394;2023-07-31T00:44:30;2.53;;;2.10;;
52590;SDS011;38483;42.620;25.394;2023-07-31T00:46:59;3.17;;;2.67;;
52590;SDS011;38483;42.620;25.394;2023-07-31T00:49:27;3.37;;;2.33;;
52590;SDS011;38483;42.620;25.394;2023-07-31T00:51:55;3.70;;;2.60;;
52590;SDS011;38483;42.620;25.394;2023-07-31T00:54:24;4.93;;;2.73;;
52590;SDS011;38483;42.620;25.394;2023-07-31T00:56:52;2.83;;;2.60;;
52590;SDS011;38483;42.620;25.394;2023-07-31T00:59:21;2.83;;;2.53;;
52590;SDS011;38483;42.620;25.394;2023-07-31T01:01:48;2.43;;;2.07;;
52590;SDS011;38483;42.620;25.394;2023-07-31T01:04:16;5.07;;;2.63;;
52590;SDS011;38483;42.620;25.394;2023-07-31T01:06:48;3.97;;;2.57;;
52590;SDS011;38483;42.620;25.394;2023-07-31T01:12:16;3.00;;;2.57;;
52590;SDS011;38483;42.620;25.394;2023-07-31T01:14:51;3.73;;;2.43;;
52590;SDS011;38483;42.620;25.394;2023-07-31T01:17:31;3.07;;;2.17;;
52590;SDS011;38483;42.620;25.394;2023-07-31T01:19:59;2.87;;;1.80;;
52590;SDS011;38483;42.620;25.394;2023-07-31T01:27:59;5.10;;;2.20;;
52590;SDS011;38483;42.620;25.394;2023-07-31T01:30:30;2.10;;;1.90;;
52590;SDS011;38483;42.620;25.394;2023-07-31T01:33:03;2.33;;;1.80;;
52590;SDS011;38483;42.620;25.394;2023-07-31T01:35:34;2.20;;;1.87;;
52590;SDS011;38483;42.620;25.394;2023-07-31T01:38:02;2.60;;;2.10;;
52590;SDS011;38483;42.620;25.394;2023-07-31T01:40:29;2.47;;;1.90;;
52590;SDS011;38483;42.620;25.394;2023-07-31T01:42:56;3.97;;;2.47;;
52590;SDS011;38483;42.620;25.394;2023-07-31T01:45:24;4.03;;;2.80;;
52590;SDS011;38483;42.620;25.394;2023-07-31T01:47:51;3.20;;;2.60;;
52590;SDS011;38483;42.620;25.394;2023-07-31T01:50:18;3.00;;;2.10;;
52590;SDS011;38483;42.620;25.394;2023-07-31T01:52:45;4.77;;;2.20;;
52590;SDS011;38483;42.620;25.394;2023-07-31T01:55:12;4.13;;;1.80;;
52590;SDS011;38483;42.620;25.394;2023-07-31T01:57:39;5.37;;;2.43;;
52590;SDS011;38483;42.620;25.394;2023-07-31T02:00:07;3.50;;;2.40;;
52590;SDS011;38483;42.620;25.394;2023-07-31T02:02:40;2.90;;;2.33;;
52590;SDS011;38483;42.620;25.394;2023-07-31T02:05:07;3.67;;;2.40;;
52590;SDS011;38483;42.620;25.394;2023-07-31T02:07:37;3.57;;;2.30;;
52590;SDS011;38483;42.620;25.394;2023-07-31T02:10:04;3.33;;;2.87;;
52590;SDS011;38483;42.620;25.394;2023-07-31T02:12:33;3.93;;;2.17;;
52590;SDS011;38483;42.620;25.394;2023-07-31T02:15:02;2.80;;;2.50;;
52590;SDS011;38483;42.620;25.394;2023-07-31T02:17:32;2.37;;;1.90;;
52590;SDS011;38483;42.620;25.394;2023-07-31T02:20:00;4.57;;;2.50;;
52590;SDS011;38483;42.620;25.394;2023-07-31T02:22:30;2.37;;;1.90;;
52590;SDS011;38483;42.620;25.394;2023-07-31T02:24:57;2.93;;;2.13;;
52590;SDS011;38483;42.620;25.394;2023-07-31T02:27:24;3.00;;;2.33;;
52590;SDS011;38483;42.620;25.394;2023-07-31T02:29:54;2.27;;;2.03;;
52590;SDS011;38483;42.620;25.394;2023-07-31T02:32:22;3.27;;;2.10;;
52590;SDS011;38483;42.620;25.394;2023-07-31T02:34:49;4.63;;;2.97;;
52590;SDS011;38483;42.620;25.394;2023-07-31T02:37:16;4.33;;;2.93;;
52590;SDS011;38483;42.620;25.394;2023-07-31T02:39:44;3.87;;;2.77;;
52590;SDS011;38483;42.620;25.394;2023-07-31T02:42:11;4.90;;;2.67;;
52590;SDS011;38483;42.620;25.394;2023-07-31T02:44:38;4.90;;;2.50;;
52590;SDS011;38483;42.620;25.394;2023-07-31T02:47:05;5.17;;;2.80;;
52590;SDS011;38483;42.620;25.394;2023-07-31T02:49:33;3.87;;;2.30;;
52590;SDS011;38483;42.620;25.394;2023-07-31T02:52:00;3.27;;;2.83;;
52590;SDS011;38483;42.620;25.394;2023-07-31T02:54:27;7.07;;;2.70;;
52590;SDS011;38483;42.620;25.394;2023-07-31T02:56:54;4.23;;;2.67;;
52590;SDS011;38483;42.620;25.394;2023-07-31T02:59:21;3.37;;;3.03;;
52590;SDS011;38483;42.620;25.394;2023-07-31T03:01:48;9.20;;;2.87;;
52590;SDS011;38483;42.620;25.394;2023-07-31T03:04:16;6.20;;;3.20;;
52590;SDS011;38483;42.620;25.394;2023-07-31T03:06:44;15.30;;;4.90;;
52590;SDS011;38483;42.620;25.394;2023-07-31T03:09:12;13.00;;;3.60;;
52590;SDS011;38483;42.620;25.394;2023-07-31T03:11:39;15.07;;;4.77;;
52590;SDS011;38483;42.620;25.394;2023-07-31T03:14:06;14.33;;;5.10;;
52590;SDS011;38483;42.620;25.394;2023-07-31T03:16:33;8.90;;;3.70;;
52590;SDS011;38483;42.620;25.394;2023-07-31T03:19:00;13.07;;;4.37;;
52590;SDS011;38483;42.620;25.394;2023-07-31T03:21:28;7.93;;;5.03;;
52590;SDS011;38483;42.620;25.394;2023-07-31T03:23:55;5.30;;;3.70;;
52590;SDS011;38483;42.620;25.394;2023-07-31T03:26:22;4.70;;;3.77;;
52590;SDS011;38483;42.620;25.394;2023-07-31T03:28:49;5.03;;;3.80;;
52590;SDS011;38483;42.620;25.394;2023-07-31T03:31:16;4.60;;;3.17;;
52590;SDS011;38483;42.620;25.394;2023-07-31T03:33:43;8.17;;;2.83;;
52590;SDS011;38483;42.620;25.394;2023-07-31T03:36:10;5.80;;;2.70;;
52590;SDS011;38483;42.620;25.394;2023-07-31T03:38:37;3.50;;;3.10;;
52590;SDS011;38483;42.620;25.394;2023-07-31T03:41:07;4.80;;;2.50;;
52590;SDS011;38483;42.620;25.394;2023-07-31T03:43:35;5.80;;;3.60;;
52590;SDS011;38483;42.620;25.394;2023-07-31T03:46:02;5.77;;;4.67;;
52590;SDS011;38483;42.620;25.394;2023-07-31T03:48:30;4.23;;;3.43;;
52590;SDS011;38483;42.620;25.394;2023-07-31T03:50:59;4.97;;;4.40;;
52590;SDS011;38483;42.620;25.394;2023-07-31T03:53:26;8.20;;;4.37;;
52590;SDS011;38483;42.620;25.394;2023-07-31T03:55:53;6.63;;;4.23;;
52590;SDS011;38483;42.620;25.394;2023-07-31T03:58:20;10.23;;;4.60;;
52590;SDS011;38483;42.620;25.394;2023-07-31T04:00:47;5.30;;;3.57;;
52590;SDS011;38483;42.620;25.394;2023-07-31T04:03:15;4.80;;;3.17;;
52590;SDS011;38483;42.620;25.394;2023-07-31T04:05:42;6.30;;;3.83;;
52590;SDS011;38483;42.620;25.394;2023-07-31T04:08:09;6.70;;;3.23;;
52590;SDS011;38483;42.620;25.394;2023-07-31T04:10:36;6.03;;;3.70;;
52590;SDS011;38483;42.620;25.394;2023-07-31T04:13:03;4.00;;;3.20;;
52590;SDS011;38483;42.620;25.394;2023-07-31T04:15:30;7.53;;;3.17;;
52590;SDS011;38483;42.620;25.394;2023-07-31T04:17:57;5.73;;;3.60;;
52590;SDS011;38483;42.620;25.394;2023-07-31T04:20:24;5.10;;;2.90;;
52590;SDS011;38483;42.620;25.394;2023-07-31T04:22:52;4.07;;;3.20;;
52590;SDS011;38483;42.620;25.394;2023-07-31T04:25:19;4.33;;;3.40;;
52590;SDS011;38483;42.620;25.394;2023-07-31T04:27:46;4.63;;;3.20;;
52590;SDS011;38483;42.620;25.394;2023-07-31T04:30:14;5.00;;;2.90;;
52590;SDS011;38483;42.620;25.394;2023-07-31T04:32:43;5.80;;;2.97;;
52590;SDS011;38483;42.620;25.394;2023-07-31T04:35:10;5.83;;;3.60;;
52590;SDS011;38483;42.620;25.394;2023-07-31T04:37:37;3.67;;;2.87;;
52590;SDS011;38483;42.620;25.394;2023-07-31T04:40:06;4.17;;;3.03;;
52590;SDS011;38483;42.620;25.394;2023-07-31T04:42:33;4.23;;;2.87;;
52590;SDS011;38483;42.620;25.394;2023-07-31T04:45:01;8.40;;;5.13;;
52590;SDS011;38483;42.620;25.394;2023-07-31T04:47:30;5.07;;;4.23;;
52590;SDS011;38483;42.620;25.394;2023-07-31T04:49:57;4.73;;;3.27;;
52590;SDS011;38483;42.620;25.394;2023-07-31T04:52:24;3.90;;;3.40;;
52590;SDS011;38483;42.620;25.394;2023-07-31T04:54:52;7.63;;;4.13;;
52590;SDS011;38483;42.620;25.394;2023-07-31T04:57:19;4.93;;;3.73;;
52590;SDS011;38483;42.620;25.394;2023-07-31T04:59:46;5.43;;;3.37;;
52590;SDS011;38483;42.620;25.394;2023-07-31T05:02:15;4.37;;;2.90;;
52590;SDS011;38483;42.620;25.394;2023-07-31T05:04:43;4.63;;;3.03;;
52590;SDS011;38483;42.620;25.394;2023-07-31T05:07:10;5.67;;;3.37;;
52590;SDS011;38483;42.620;25.394;2023-07-31T05:09:37;3.80;;;2.73;;
52590;SDS011;38483;42.620;25.394;2023-07-31T05:12:06;3.67;;;2.80;;
52590;SDS011;38483;42.620;25.394;2023-07-31T05:14:33;3.77;;;3.00;;
52590;SDS011;38483;42.620;25.394;2023-07-31T05:17:00;5.07;;;3.20;;
52590;SDS011;38483;42.620;25.394;2023-07-31T05:19:27;3.63;;;2.80;;
52590;SDS011;38483;42.620;25.394;2023-07-31T05:21:55;4.57;;;3.57;;
52590;SDS011;38483;42.620;25.394;2023-07-31T05:24:22;7.20;;;3.90;;
52590;SDS011;38483;42.620;25.394;2023-07-31T05:26:50;5.63;;;3.97;;
52590;SDS011;38483;42.620;25.394;2023-07-31T05:29:17;6.80;;;3.40;;
52590;SDS011;38483;42.620;25.394;2023-07-31T05:31:44;5.73;;;3.77;;
52590;SDS011;38483;42.620;25.394;2023-07-31T05:34:12;6.03;;;3.10;;
52590;SDS011;38483;42.620;25.394;2023-07-31T05:36:39;5.27;;;3.47;;
52590;SDS011;38483;42.620;25.394;2023-07-31T05:39:06;5.40;;;3.70;;
52590;SDS011;38483;42.620;25.394;2023-07-31T05:41:35;5.33;;;3.60;;
52590;SDS011;38483;42.620;25.394;2023-07-31T05:44:04;6.03;;;4.10;;
52590;SDS011;38483;42.620;25.394;2023-07-31T05:46:32;4.80;;;3.63;;
52590;SDS011;38483;42.620;25.394;2023-07-31T05:48:59;5.70;;;4.00;;
52590;SDS011;38483;42.620;25.394;2023-07-31T05:51:28;8.17;;;4.60;;
52590;SDS011;38483;42.620;25.394;2023-07-31T05:53:55;7.17;;;4.90;;
52590;SDS011;38483;42.620;25.394;2023-07-31T05:56:22;6.43;;;4.43;;
52590;SDS011;38483;42.620;25.394;2023-07-31T05:58:49;6.73;;;4.03;;
52590;SDS011;38483;42.620;25.394;2023-07-31T06:01:17;5.07;;;3.67;;
52590;SDS011;38483;42.620;25.394;2023-07-31T06:03:45;11.03;;;4.57;;
52590;SDS011;38483;42.620;25.394;2023-07-31T06:06:12;7.37;;;4.53;;
52590;SDS011;38483;42.620;25.394;2023-07-31T06:08:40;7.90;;;4.40;;
52590;SDS011;38483;42.620;25.394;2023-07-31T06:11:08;8.77;;;5.00;;
52590;SDS011;38483;42.620;25.394;2023-07-31T06:13:36;6.13;;;4.20;;
52590;SDS011;38483;42.620;25.394;2023-07-31T06:16:03;8.40;;;4.63;;
52590;SDS011;38483;42.620;25.394;2023-07-31T06:18:33;5.67;;;4.47;;
52590;SDS011;38483;42.620;25.394;2023-07-31T06:21:00;7.63;;;4.73;;
52590;SDS011;38483;42.620;25.394;2023-07-31T06:23:27;5.87;;;4.73;;
52590;SDS011;38483;42.620;25.394;2023-07-31T06:25:55;6.03;;;5.03;;
52590;SDS011;38483;42.620;25.394;2023-07-31T06:28:27;7.87;;;5.10;;
52590;SDS011;38483;42.620;25.394;2023-07-31T06:30:56;6.43;;;4.03;;
52590;SDS011;38483;42.620;25.394;2023-07-31T06:33:24;7.03;;;4.40;;
52590;SDS011;38483;42.620;25.394;2023-07-31T06:35:52;8.00;;;5.30;;
52590;SDS011;38483;42.620;25.394;2023-07-31T06:38:21;7.07;;;5.60;;
52590;SDS011;38483;42.620;25.394;2023-07-31T06:40:51;4.50;;;4.10;;
52590;SDS011;38483;42.620;25.394;2023-07-31T06:43:18;6.67;;;4.43;;
52590;SDS011;38483;42.620;25.394;2023-07-31T06:45:46;5.53;;;5.03;;
52590;SDS011;38483;42.620;25.394;2023-07-31T06:48:24;7.03;;;4.70;;
52590;SDS011;38483;42.620;25.394;2023-07-31T06:50:54;6.63;;;4.67;;
52590;SDS011;38483;42.620;25.394;2023-07-31T06:53:21;5.33;;;4.77;;
52590;SDS011;38483;42.620;25.394;2023-07-31T06:55:48;5.57;;;4.10;;
52590;SDS011;38483;42.620;25.394;2023-07-31T06:58:18;5.53;;;4.57;;
52590;SDS011;38483;42.620;25.394;2023-07-31T07:00:45;5.03;;;4.53;;
52590;SDS011;38483;42.620;25.394;2023-07-31T07:03:12;6.17;;;5.10;;
52590;SDS011;38483;42.620;25.394;2023-07-31T07:05:41;5.80;;;4.60;;
52590;SDS011;38483;42.620;25.394;2023-07-31T07:08:08;5.33;;;4.57;;
52590;SDS011;38483;42.620;25.394;2023-07-31T07:10:36;9.40;;;6.00;;
52590;SDS011;38483;42.620;25.394;2023-07-31T07:13:04;6.33;;;5.53;;
52590;SDS011;38483;42.620;25.394;2023-07-31T07:15:32;7.70;;;6.33;;
52590;SDS011;38483;42.620;25.394;2023-07-31T07:17:59;8.80;;;5.97;;
52590;SDS011;38483;42.620;25.394;2023-07-31T07:20:26;8.63;;;5.50;;
52590;SDS011;38483;42.620;25.394;2023-07-31T07:22:54;12.23;;;11.03;;
52590;SDS011;38483;42.620;25.394;2023-07-31T07:25:21;8.73;;;6.90;;
52590;SDS011;38483;42.620;25.394;2023-07-31T07:27:48;13.87;;;8.07;;
52590;SDS011;38483;42.620;25.394;2023-07-31T07:30:15;10.40;;;6.87;;
52590;SDS011;38483;42.620;25.394;2023-07-31T07:32:43;16.40;;;9.10;;
52590;SDS011;38483;42.620;25.394;2023-07-31T07:35:10;15.70;;;9.03;;
52590;SDS011;38483;42.620;25.394;2023-07-31T07:37:38;11.43;;;9.10;;
52590;SDS011;38483;42.620;25.394;2023-07-31T07:40:05;9.50;;;8.00;;
52590;SDS011;38483;42.620;25.394;2023-07-31T07:42:33;11.73;;;7.23;;
52590;SDS011;38483;42.620;25.394;2023-07-31T07:45:01;11.33;;;6.70;;
52590;SDS011;38483;42.620;25.394;2023-07-31T07:47:29;13.27;;;8.33;;
52590;SDS011;38483;42.620;25.394;2023-07-31T07:49:56;20.47;;;14.60;;
52590;SDS011;38483;42.620;25.394;2023-07-31T07:52:23;11.73;;;7.93;;
52590;SDS011;38483;42.620;25.394;2023-07-31T07:54:50;10.20;;;7.20;;
52590;SDS011;38483;42.620;25.394;2023-07-31T07:57:17;7.70;;;6.33;;
52590;SDS011;38483;42.620;25.394;2023-07-31T07:59:45;8.77;;;6.97;;
52590;SDS011;38483;42.620;25.394;2023-07-31T08:02:12;13.10;;;9.50;;
52590;SDS011;38483;42.620;25.394;2023-07-31T08:04:39;7.17;;;5.87;;
52590;SDS011;38483;42.620;25.394;2023-07-31T08:07:06;10.20;;;6.20;;
52590;SDS011;38483;42.620;25.394;2023-07-31T08:09:34;7.57;;;6.53;;
52590;SDS011;38483;42.620;25.394;2023-07-31T08:12:01;8.40;;;7.40;;
52590;SDS011;38483;42.620;25.394;2023-07-31T08:14:30;9.93;;;7.00;;
52590;SDS011;38483;42.620;25.394;2023-07-31T08:16:59;8.43;;;6.73;;
52590;SDS011;38483;42.620;25.394;2023-07-31T08:19:27;7.07;;;6.37;;
52590;SDS011;38483;42.620;25.394;2023-07-31T08:21:54;8.73;;;6.43;;
52590;SDS011;38483;42.620;25.394;2023-07-31T08:24:24;7.87;;;6.10;;
52590;SDS011;38483;42.620;25.394;2023-07-31T08:26:51;13.50;;;7.23;;
52590;SDS011;38483;42.620;25.394;2023-07-31T08:29:18;10.30;;;6.23;;
52590;SDS011;38483;42.620;25.394;2023-07-31T08:31:46;10.50;;;6.97;;
52590;SDS011;38483;42.620;25.394;2023-07-31T08:34:13;10.47;;;7.27;;
52590;SDS011;38483;42.620;25.394;2023-07-31T08:36:41;8.20;;;6.03;;
52590;SDS011;38483;42.620;25.394;2023-07-31T08:39:08;8.60;;;6.00;;
52590;SDS011;38483;42.620;25.394;2023-07-31T08:41:39;8.40;;;7.13;;
52590;SDS011;38483;42.620;25.394;2023-07-31T08:44:10;10.80;;;7.70;;
52590;SDS011;38483;42.620;25.394;2023-07-31T08:46:38;7.47;;;6.67;;
52590;SDS011;38483;42.620;25.394;2023-07-31T08:49:07;8.73;;;7.80;;
52590;SDS011;38483;42.620;25.394;2023-07-31T08:51:48;8.37;;;6.40;;
52590;SDS011;38483;42.620;25.394;2023-07-31T08:54:17;7.20;;;6.23;;
52590;SDS011;38483;42.620;25.394;2023-07-31T08:56:45;7.40;;;6.63;;
52590;SDS011;38483;42.620;25.394;2023-07-31T08:59:13;11.63;;;7.67;;
52590;SDS011;38483;42.620;25.394;2023-07-31T09:01:46;7.73;;;6.70;;
52590;SDS011;38483;42.620;25.394;2023-07-31T09:05:08;7.30;;;5.87;;
52590;SDS011;38483;42.620;25.394;2023-07-31T09:08:30;8.63;;;6.47;;
52590;SDS011;38483;42.620;25.394;2023-07-31T09:11:50;9.70;;;7.70;;
52590;SDS011;38483;42.620;25.394;2023-07-31T09:15:11;9.77;;;6.73;;
52590;SDS011;38483;42.620;25.394;2023-07-31T09:18:31;11.40;;;7.57;;
52590;SDS011;38483;42.620;25.394;2023-07-31T09:21:55;8.40;;;7.27;;
52590;SDS011;38483;42.620;25.394;2023-07-31T09:28:19;11.13;;;8.67;;
52590;SDS011;38483;42.620;25.394;2023-07-31T09:31:41;9.23;;;7.67;;
52590;SDS011;38483;42.620;25.394;2023-07-31T09:35:01;9.73;;;6.73;;
52590;SDS011;38483;42.620;25.394;2023-07-31T09:38:21;9.40;;;6.33;;
52590;SDS011;38483;42.620;25.394;2023-07-31T09:41:43;7.60;;;6.90;;
52590;SDS011;38483;42.620;25.394;2023-07-31T09:45:07;8.40;;;7.43;;
52590;SDS011;38483;42.620;25.394;2023-07-31T09:48:27;8.03;;;7.23;;
52590;SDS011;38483;42.620;25.394;2023-07-31T09:51:49;7.27;;;6.27;;
52590;SDS011;38483;42.620;25.394;2023-07-31T09:55:10;7.70;;;6.70;;
52590;SDS011;38483;42.620;25.394;2023-07-31T09:58:31;7.20;;;6.50;;
52590;SDS011;38483;42.620;25.394;2023-07-31T10:01:51;9.27;;;7.40;;
52590;SDS011;38483;42.620;25.394;2023-07-31T10:05:13;8.13;;;6.97;;
52590;SDS011;38483;42.620;25.394;2023-07-31T10:08:33;8.13;;;7.13;;
52590;SDS011;38483;42.620;25.394;2023-07-31T10:11:56;6.97;;;6.23;;
52590;SDS011;38483;42.620;25.394;2023-07-31T10:15:16;8.10;;;7.20;;
52590;SDS011;38483;42.620;25.394;2023-07-31T10:18:36;6.60;;;6.00;;
52590;SDS011;38483;42.620;25.394;2023-07-31T10:21:05;7.10;;;6.40;;
52590;SDS011;38483;42.620;25.394;2023-07-31T10:23:33;6.67;;;5.93;;
52590;SDS011;38483;42.620;25.394;2023-07-31T10:26:02;7.13;;;6.17;;
52590;SDS011;38483;42.620;25.394;2023-07-31T10:28:30;8.37;;;6.27;;
52590;SDS011;38483;42.620;25.394;2023-07-31T10:31:01;8.50;;;6.20;;
52590;SDS011;38483;42.620;25.394;2023-07-31T10:33:30;5.43;;;4.93;;
52590;SDS011;38483;42.620;25.394;2023-07-31T10:39:00;5.23;;;4.63;;
52590;SDS011;38483;42.620;25.394;2023-07-31T10:41:31;4.70;;;4.10;;
52590;SDS011;38483;42.620;25.394;2023-07-31T10:44:01;5.17;;;4.13;;
52590;SDS011;38483;42.620;25.394;2023-07-31T10:46:29;4.13;;;3.53;;
52590;SDS011;38483;42.620;25.394;2023-07-31T10:49:00;5.77;;;4.20;;
52590;SDS011;38483;42.620;25.394;2023-07-31T10:51:32;3.93;;;3.53;;
52590;SDS011;38483;42.620;25.394;2023-07-31T10:54:12;4.73;;;3.10;;
52590;SDS011;38483;42.620;25.394;2023-07-31T10:56:45;4.20;;;3.53;;
52590;SDS011;38483;42.620;25.394;2023-07-31T10:59:13;6.20;;;4.23;;
52590;SDS011;38483;42.620;25.394;2023-07-31T11:01:50;6.63;;;4.60;;
52590;SDS011;38483;42.620;25.394;2023-07-31T11:04:25;6.63;;;4.20;;
52590;SDS011;38483;42.620;25.394;2023-07-31T11:06:57;4.67;;;4.17;;
52590;SDS011;38483;42.620;25.394;2023-07-31T11:09:29;4.20;;;3.80;;
52590;SDS011;38483;42.620;25.394;2023-07-31T11:11:59;4.47;;;3.50;;
52590;SDS011;38483;42.620;25.394;2023-07-31T11:14:27;5.37;;;3.43;;
52590;SDS011;38483;42.620;25.394;2023-07-31T11:16:54;3.50;;;2.97;;
52590;SDS011;38483;42.620;25.394;2023-07-31T11:19:22;5.10;;;3.60;;
52590;SDS011;38483;42.620;25.394;2023-07-31T11:21:54;4.20;;;3.63;;
52590;SDS011;38483;42.620;25.394;2023-07-31T11:24:23;3.60;;;3.30;;
52590;SDS011;38483;42.620;25.394;2023-07-31T11:26:51;5.43;;;3.27;;
52590;SDS011;38483;42.620;25.394;2023-07-31T11:29:20;5.40;;;3.53;;
52590;SDS011;38483;42.620;25.394;2023-07-31T11:31:47;3.50;;;3.20;;
52590;SDS011;38483;42.620;25.394;2023-07-31T11:34:16;3.83;;;3.37;;
52590;SDS011;38483;42.620;25.394;2023-07-31T11:36:52;3.53;;;3.20;;
52590;SDS011;38483;42.620;25.394;2023-07-31T11:39:22;4.07;;;3.20;;
52590;SDS011;38483;42.620;25.394;2023-07-31T11:41:49;4.50;;;3.47;;
52590;SDS011;38483;42.620;25.394;2023-07-31T11:44:16;5.83;;;4.17;;
52590;SDS011;38483;42.620;25.394;2023-07-31T11:46:56;3.60;;;3.20;;
52590;SDS011;38483;42.620;25.394;2023-07-31T11:49:24;3.70;;;3.40;;
52590;SDS011;38483;42.620;25.394;2023-07-31T11:51:52;3.33;;;3.03;;
52590;SDS011;38483;42.620;25.394;2023-07-31T11:54:20;3.73;;;3.30;;
52590;SDS011;38483;42.620;25.394;2023-07-31T11:56:47;3.67;;;3.20;;
52590;SDS011;38483;42.620;25.394;2023-07-31T11:59:16;3.17;;;2.87;;
52590;SDS011;38483;42.620;25.394;2023-07-31T12:01:44;6.40;;;3.67;;
52590;SDS011;38483;42.620;25.394;2023-07-31T12:04:11;3.40;;;3.10;;
52590;SDS011;38483;42.620;25.394;2023-07-31T12:06:40;3.30;;;2.90;;
52590;SDS011;38483;42.620;25.394;2023-07-31T12:09:08;4.20;;;2.90;;
52590;SDS011;38483;42.620;25.394;2023-07-31T12:11:45;4.40;;;2.80;;
52590;SDS011;38483;42.620;25.394;2023-07-31T12:14:28;2.93;;;2.60;;
52590;SDS011;38483;42.620;25.394;2023-07-31T12:16:59;5.53;;;2.93;;
52590;SDS011;38483;42.620;25.394;2023-07-31T12:19:29;3.50;;;2.67;;
52590;SDS011;38483;42.620;25.394;2023-07-31T12:22:00;3.13;;;2.77;;
52590;SDS011;38483;42.620;25.394;2023-07-31T12:24:28;3.70;;;2.97;;
52590;SDS011;38483;42.620;25.394;2023-07-31T12:26:56;3.40;;;2.13;;
52590;SDS011;38483;42.620;25.394;2023-07-31T12:29:23;3.43;;;2.40;;
52590;SDS011;38483;42.620;25.394;2023-07-31T12:31:50;3.60;;;2.20;;
52590;SDS011;38483;42.620;25.394;2023-07-31T12:34:18;2.50;;;2.30;;
52590;SDS011;38483;42.620;25.394;2023-07-31T12:36:48;3.77;;;2.33;;
52590;SDS011;38483;42.620;25.394;2023-07-31T12:39:18;5.07;;;3.90;;
52590;SDS011;38483;42.620;25.394;2023-07-31T12:41:45;2.90;;;2.60;;
52590;SDS011;38483;42.620;25.394;2023-07-31T12:44:12;3.57;;;2.63;;
52590;SDS011;38483;42.620;25.394;2023-07-31T12:46:40;4.57;;;2.53;;
52590;SDS011;38483;42.620;25.394;2023-07-31T12:49:09;3.00;;;2.70;;
52590;SDS011;38483;42.620;25.394;2023-07-31T12:51:36;2.90;;;2.60;;
52590;SDS011;38483;42.620;25.394;2023-07-31T12:54:03;3.80;;;2.77;;
52590;SDS011;38483;42.620;25.394;2023-07-31T12:56:30;3.37;;;2.70;;
52590;SDS011;38483;42.620;25.394;2023-07-31T12:58:58;2.80;;;2.60;;
52590;SDS011;38483;42.620;25.394;2023-07-31T13:01:25;3.07;;;2.77;;
52590;SDS011;38483;42.620;25.394;2023-07-31T13:03:53;3.13;;;2.77;;
52590;SDS011;38483;42.620;25.394;2023-07-31T13:06:20;3.10;;;2.80;;
52590;SDS011;38483;42.620;25.394;2023-07-31T13:08:47;3.43;;;3.00;;
52590;SDS011;38483;42.620;25.394;2023-07-31T13:11:14;2.87;;;2.50;;
52590;SDS011;38483;42.620;25.394;2023-07-31T13:13:42;3.73;;;2.83;;
52590;SDS011;38483;42.620;25.394;2023-07-31T13:16:10;3.53;;;2.93;;
52590;SDS011;38483;42.620;25.394;2023-07-31T13:18:37;4.13;;;2.70;;
52590;SDS011;38483;42.620;25.394;2023-07-31T13:21:04;3.90;;;2.80;;
52590;SDS011;38483;42.620;25.394;2023-07-31T13:23:32;4.37;;;2.90;;
52590;SDS011;38483;42.620;25.394;2023-07-31T13:25:59;3.17;;;2.80;;
52590;SDS011;38483;42.620;25.394;2023-07-31T13:28:26;4.57;;;3.47;;
52590;SDS011;38483;42.620;25.394;2023-07-31T13:30:54;5.27;;;3.03;;
52590;SDS011;38483;42.620;25.394;2023-07-31T13:33:21;3.03;;;2.73;;
52590;SDS011;38483;42.620;25.394;2023-07-31T13:36:03;3.00;;;2.70;;
52590;SDS011;38483;42.620;25.394;2023-07-31T13:38:30;3.30;;;3.00;;
52590;SDS011;38483;42.620;25.394;2023-07-31T13:40:58;3.17;;;2.73;;
52590;SDS011;38483;42.620;25.394;2023-07-31T13:43:25;2.63;;;2.43;;
52590;SDS011;38483;42.620;25.394;2023-07-31T13:45:53;2.73;;;2.43;;
52590;SDS011;38483;42.620;25.394;2023-07-31T13:48:20;4.23;;;3.30;;
52590;SDS011;38483;42.620;25.394;2023-07-31T13:50:47;2.80;;;2.60;;
52590;SDS011;38483;42.620;25.394;2023-07-31T13:53:14;3.83;;;3.43;;
52590;SDS011;38483;42.620;25.394;2023-07-31T13:55:41;3.53;;;2.87;;
52590;SDS011;38483;42.620;25.394;2023-07-31T13:58:12;3.70;;;3.20;;
52590;SDS011;38483;42.620;25.394;2023-07-31T14:00:39;3.47;;;3.00;;
52590;SDS011;38483;42.620;25.394;2023-07-31T14:03:11;3.47;;;3.17;;
52590;SDS011;38483;42.620;25.394;2023-07-31T14:05:38;3.70;;;3.40;;
52590;SDS011;38483;42.620;25.394;2023-07-31T14:08:05;4.23;;;3.60;;
52590;SDS011;38483;42.620;25.394;2023-07-31T14:10:33;3.60;;;3.17;;
52590;SDS011;38483;42.620;25.394;2023-07-31T14:13:00;4.77;;;3.80;;
52590;SDS011;38483;42.620;25.394;2023-07-31T14:15:27;4.27;;;3.83;;
52590;SDS011;38483;42.620;25.394;2023-07-31T14:17:55;4.07;;;3.63;;
52590;SDS011;38483;42.620;25.394;2023-07-31T14:20:26;3.80;;;3.40;;
52590;SDS011;38483;42.620;25.394;2023-07-31T14:22:53;3.20;;;2.87;;
52590;SDS011;38483;42.620;25.394;2023-07-31T14:25:21;4.97;;;3.87;;
52590;SDS011;38483;42.620;25.394;2023-07-31T14:27:48;7.67;;;4.00;;
52590;SDS011;38483;42.620;25.394;2023-07-31T14:30:15;3.73;;;3.43;;
52590;SDS011;38483;42.620;25.394;2023-07-31T14:32:44;5.00;;;4.00;;
52590;SDS011;38483;42.620;25.394;2023-07-31T14:35:11;4.87;;;3.77;;
52590;SDS011;38483;42.620;25.394;2023-07-31T14:37:39;4.57;;;3.87;;
52590;SDS011;38483;42.620;25.394;2023-07-31T14:40:07;4.10;;;3.77;;
52590;SDS011;38483;42.620;25.394;2023-07-31T14:42:35;4.50;;;4.07;;
52590;SDS011;38483;42.620;25.394;2023-07-31T14:45:03;7.80;;;4.37;;
52590;SDS011;38483;42.620;25.394;2023-07-31T14:47:31;3.77;;;3.43;;
52590;SDS011;38483;42.620;25.394;2023-07-31T14:49:59;5.33;;;4.40;;
52590;SDS011;38483;42.620;25.394;2023-07-31T14:53:20;4.83;;;4.30;;
52590;SDS011;38483;42.620;25.394;2023-07-31T14:56:40;9.03;;;4.07;;
52590;SDS011;38483;42.620;25.394;2023-07-31T15:00:01;4.60;;;4.20;;
52590;SDS011;38483;42.620;25.394;2023-07-31T15:03:23;4.53;;;4.10;;
52590;SDS011;38483;42.620;25.394;2023-07-31T15:06:44;4.97;;;4.47;;
52590;SDS011;38483;42.620;25.394;2023-07-31T15:10:05;4.23;;;3.80;;
52590;SDS011;38483;42.620;25.394;2023-07-31T15:13:26;5.37;;;4.87;;
52590;SDS011;38483;42.620;25.394;2023-07-31T15:16:47;5.73;;;4.30;;
52590;SDS011;38483;42.620;25.394;2023-07-31T15:20:09;6.57;;;4.37;;